sensor_id;sensor_type;location;lat;lon;timestamp;temperature;humidity
75357;HTU21D;63946;51.986;5.930;2023-09-19T05:03:05;15.07;66.80
75357;HTU21D;63946;51.986;5.930;2023-09-19T05:12:29;15.08;66.92
75357;HTU21D;63946;51.986;5.930;2023-09-19T05:15:05;15.07;66.94
75357;HTU21D;63946;51.986;5.930;2023-09-19T05:17:35;15.08;66.94
75357;HTU21D;63946;51.986;5.930;2023-09-19T05:20:05;15.07;66.94
75357;HTU21D;63946;51.986;5.930;2023-09-19T05:22:42;15.10;67.01
75357;HTU21D;63946;51.986;5.930;2023-09-19T05:25:17;15.11;67.01
75357;HTU21D;63946;51.986;5.930;2023-09-19T05:27:49;15.13;66.96
75357;HTU21D;63946;51.986;5.930;2023-09-19T05:30:20;15.17;67.02
75357;HTU21D;63946;51.986;5.930;2023-09-19T05:32:53;15.19;66.94
75357;HTU21D;63946;51.986;5.930;2023-09-19T05:35:23;15.22;66.92
75357;HTU21D;63946;51.986;5.930;2023-09-19T05:37:54;15.22;67.04
75357;HTU21D;63946;51.986;5.930;2023-09-19T05:40:25;15.24;67.04
75357;HTU21D;63946;51.986;5.930;2023-09-19T05:42:54;15.27;66.94
75357;HTU21D;63946;51.986;5.930;2023-09-19T05:45:35;15.29;66.91
75357;HTU21D;63946;51.986;5.930;2023-09-19T05:48:14;15.30;66.86
75357;HTU21D;63946;51.986;5.930;2023-09-19T05:50:44;15.31;66.98
75357;HTU21D;63946;51.986;5.930;2023-09-19T05:53:15;15.32;66.95
75357;HTU21D;63946;51.986;5.930;2023-09-19T05:55:49;15.31;67.20
75357;HTU21D;63946;51.986;5.930;2023-09-19T05:58:19;15.32;67.11
75357;HTU21D;63946;51.986;5.930;2023-09-19T06:00:48;15.33;67.04
75357;HTU21D;63946;51.986;5.930;2023-09-19T06:03:21;15.34;67.08
75357;HTU21D;63946;51.986;5.930;2023-09-19T06:05:51;15.36;67.16
75357;HTU21D;63946;51.986;5.930;2023-09-19T06:08:26;15.37;67.14
75357;HTU21D;63946;51.986;5.930;2023-09-19T06:10:57;15.40;67.13
75357;HTU21D;63946;51.986;5.930;2023-09-19T06:13:28;15.44;67.14
75357;HTU21D;63946;51.986;5.930;2023-09-19T06:15:59;15.45;67.20
75357;HTU21D;63946;51.986;5.930;2023-09-19T06:18:31;15.51;67.27
75357;HTU21D;63946;51.986;5.930;2023-09-19T06:21:02;15.54;67.30
75357;HTU21D;63946;51.986;5.930;2023-09-19T06:23:34;15.57;67.33
75357;HTU21D;63946;51.986;5.930;2023-09-19T06:26:03;15.59;67.42
75357;HTU21D;63946;51.986;5.930;2023-09-19T06:28:34;15.63;67.41
75357;HTU21D;63946;51.986;5.930;2023-09-19T06:31:03;15.63;67.44
75357;HTU21D;63946;51.986;5.930;2023-09-19T06:33:36;15.68;67.49
75357;HTU21D;63946;51.986;5.930;2023-09-19T06:36:06;15.72;67.43
75357;HTU21D;63946;51.986;5.930;2023-09-19T06:38:35;15.75;67.54
75357;HTU21D;63946;51.986;5.930;2023-09-19T06:41:14;15.82;67.51
75357;HTU21D;63946;51.986;5.930;2023-09-19T06:43:43;15.83;67.46
75357;HTU21D;63946;51.986;5.930;2023-09-19T06:46:13;15.85;67.54
75357;HTU21D;63946;51.986;5.930;2023-09-19T06:48:42;15.88;67.52
75357;HTU21D;63946;51.986;5.930;2023-09-19T06:51:13;15.95;67.47
75357;HTU21D;63946;51.986;5.930;2023-09-19T06:53:43;15.99;67.48
75357;HTU21D;63946;51.986;5.930;2023-09-19T06:56:11;16.06;67.39
75357;HTU21D;63946;51.986;5.930;2023-09-19T06:58:41;16.11;67.37
75357;HTU21D;63946;51.986;5.930;2023-09-19T07:01:10;16.14;67.30
75357;HTU21D;63946;51.986;5.930;2023-09-19T07:03:41;16.14;67.35
75357;HTU21D;63946;51.986;5.930;2023-09-19T07:06:11;16.17;67.33
75357;HTU21D;63946;51.986;5.930;2023-09-19T07:08:44;16.15;67.44
75357;HTU21D;63946;51.986;5.930;2023-09-19T07:11:13;16.18;67.49
75357;HTU21D;63946;51.986;5.930;2023-09-19T07:13:42;16.24;67.46
75357;HTU21D;63946;51.986;5.930;2023-09-19T07:16:11;16.28;67.41
75357;HTU21D;63946;51.986;5.930;2023-09-19T07:18:53;16.31;67.43
75357;HTU21D;63946;51.986;5.930;2023-09-19T07:21:23;16.32;67.40
75357;HTU21D;63946;51.986;5.930;2023-09-19T07:23:52;16.34;67.39
75357;HTU21D;63946;51.986;5.930;2023-09-19T07:26:21;16.36;67.37
75357;HTU21D;63946;51.986;5.930;2023-09-19T07:28:51;16.45;67.27
75357;HTU21D;63946;51.986;5.930;2023-09-19T07:31:20;16.52;67.18
75357;HTU21D;63946;51.986;5.930;2023-09-19T07:33:51;16.59;67.11
75357;HTU21D;63946;51.986;5.930;2023-09-19T07:36:22;16.67;66.89
75357;HTU21D;63946;51.986;5.930;2023-09-19T07:38:51;16.71;66.69
75357;HTU21D;63946;51.986;5.930;2023-09-19T07:41:24;16.73;66.73
75357;HTU21D;63946;51.986;5.930;2023-09-19T07:43:55;16.79;66.61
75357;HTU21D;63946;51.986;5.930;2023-09-19T07:46:34;16.90;66.51
75357;HTU21D;63946;51.986;5.930;2023-09-19T07:49:05;16.92;66.41
75357;HTU21D;63946;51.986;5.930;2023-09-19T07:51:36;16.96;66.46
75357;HTU21D;63946;51.986;5.930;2023-09-19T07:54:06;17.03;66.35
75357;HTU21D;63946;51.986;5.930;2023-09-19T07:56:36;17.04;66.27
75357;HTU21D;63946;51.986;5.930;2023-09-19T07:59:04;17.06;66.23
75357;HTU21D;63946;51.986;5.930;2023-09-19T08:01:34;17.09;66.33
75357;HTU21D;63946;51.986;5.930;2023-09-19T08:04:03;17.15;66.15
75357;HTU21D;63946;51.986;5.930;2023-09-19T08:06:32;17.21;65.88
75357;HTU21D;63946;51.986;5.930;2023-09-19T08:09:01;17.18;65.75
75357;HTU21D;63946;51.986;5.930;2023-09-19T08:11:36;17.22;65.66
75357;HTU21D;63946;51.986;5.930;2023-09-19T08:14:05;17.25;65.78
75357;HTU21D;63946;51.986;5.930;2023-09-19T08:16:34;17.35;65.66
75357;HTU21D;63946;51.986;5.930;2023-09-19T08:19:03;17.41;65.50
75357;HTU21D;63946;51.986;5.930;2023-09-19T08:21:34;17.48;65.38
75357;HTU21D;63946;51.986;5.930;2023-09-19T08:24:04;17.55;65.29
75357;HTU21D;63946;51.986;5.930;2023-09-19T08:26:35;17.64;64.88
75357;HTU21D;63946;51.986;5.930;2023-09-19T08:29:04;17.68;64.69
75357;HTU21D;63946;51.986;5.930;2023-09-19T08:31:33;17.72;64.73
75357;HTU21D;63946;51.986;5.930;2023-09-19T08:34:03;17.73;64.71
75357;HTU21D;63946;51.986;5.930;2023-09-19T08:36:42;17.72;64.90
75357;HTU21D;63946;51.986;5.930;2023-09-19T08:39:13;17.78;64.94
75357;HTU21D;63946;51.986;5.930;2023-09-19T08:41:44;17.82;64.87
75357;HTU21D;63946;51.986;5.930;2023-09-19T08:44:13;17.85;64.73
75357;HTU21D;63946;51.986;5.930;2023-09-19T08:46:43;17.84;64.69
75357;HTU21D;63946;51.986;5.930;2023-09-19T08:52:16;18.00;64.62
75357;HTU21D;63946;51.986;5.930;2023-09-19T08:54:51;18.08;64.37
75357;HTU21D;63946;51.986;5.930;2023-09-19T08:57:29;18.10;64.40
75357;HTU21D;63946;51.986;5.930;2023-09-19T09:00:04;18.15;64.31
75357;HTU21D;63946;51.986;5.930;2023-09-19T09:02:38;18.21;64.11
75357;HTU21D;63946;51.986;5.930;2023-09-19T09:05:10;18.23;64.07
75357;HTU21D;63946;51.986;5.930;2023-09-19T09:07:42;18.25;63.89
75357;HTU21D;63946;51.986;5.930;2023-09-19T09:10:13;18.27;63.83
75357;HTU21D;63946;51.986;5.930;2023-09-19T09:12:45;18.32;63.65
75357;HTU21D;63946;51.986;5.930;2023-09-19T09:15:14;18.37;63.45
75357;HTU21D;63946;51.986;5.930;2023-09-19T09:17:47;18.43;63.26
75357;HTU21D;63946;51.986;5.930;2023-09-19T09:20:21;18.51;62.89
75357;HTU21D;63946;51.986;5.930;2023-09-19T09:22:51;18.57;62.70
75357;HTU21D;63946;51.986;5.930;2023-09-19T09:25:54;18.69;62.18
75357;HTU21D;63946;51.986;5.930;2023-09-19T09:28:27;18.80;62.04
75357;HTU21D;63946;51.986;5.930;2023-09-19T09:31:00;18.95;61.80
75357;HTU21D;63946;51.986;5.930;2023-09-19T09:33:52;19.10;61.26
75357;HTU21D;63946;51.986;5.930;2023-09-19T09:36:36;19.16;60.93
75357;HTU21D;63946;51.986;5.930;2023-09-19T09:39:07;19.27;60.62
75357;HTU21D;63946;51.986;5.930;2023-09-19T09:41:54;19.44;60.25
75357;HTU21D;63946;51.986;5.930;2023-09-19T09:44:25;19.55;59.80
75357;HTU21D;63946;51.986;5.930;2023-09-19T09:46:58;19.47;59.70
75357;HTU21D;63946;51.986;5.930;2023-09-19T09:49:50;19.47;59.48
75357;HTU21D;63946;51.986;5.930;2023-09-19T09:52:44;19.56;59.36
75357;HTU21D;63946;51.986;5.930;2023-09-19T09:55:23;19.70;59.28
75357;HTU21D;63946;51.986;5.930;2023-09-19T09:58:18;19.88;58.61
75357;HTU21D;63946;51.986;5.930;2023-09-19T10:00:56;20.01;58.40
75357;HTU21D;63946;51.986;5.930;2023-09-19T10:03:37;20.02;57.96
75357;HTU21D;63946;51.986;5.930;2023-09-19T10:06:11;20.10;57.55
75357;HTU21D;63946;51.986;5.930;2023-09-19T10:09:10;20.14;57.54
75357;HTU21D;63946;51.986;5.930;2023-09-19T10:11:48;20.06;57.56
75357;HTU21D;63946;51.986;5.930;2023-09-19T10:14:27;19.97;57.64
75357;HTU21D;63946;51.986;5.930;2023-09-19T10:17:06;20.02;57.39
75357;HTU21D;63946;51.986;5.930;2023-09-19T10:19:57;20.16;57.46
75357;HTU21D;63946;51.986;5.930;2023-09-19T10:22:37;20.30;57.08
75357;HTU21D;63946;51.986;5.930;2023-09-19T10:25:12;20.42;56.68
75357;HTU21D;63946;51.986;5.930;2023-09-19T10:27:41;20.51;56.21
75357;HTU21D;63946;51.986;5.930;2023-09-19T10:30:12;20.57;56.29
75357;HTU21D;63946;51.986;5.930;2023-09-19T10:32:45;20.63;56.40
75357;HTU21D;63946;51.986;5.930;2023-09-19T10:35:25;20.66;56.52
75357;HTU21D;63946;51.986;5.930;2023-09-19T10:38:00;20.71;56.51
75357;HTU21D;63946;51.986;5.930;2023-09-19T10:40:30;20.63;56.34
75357;HTU21D;63946;51.986;5.930;2023-09-19T10:43:03;20.48;56.28
75357;HTU21D;63946;51.986;5.930;2023-09-19T10:45:35;20.53;56.26
75357;HTU21D;63946;51.986;5.930;2023-09-19T10:48:11;20.71;56.27
75357;HTU21D;63946;51.986;5.930;2023-09-19T10:53:56;20.71;55.63
75357;HTU21D;63946;51.986;5.930;2023-09-19T10:56:36;20.51;56.07
75357;HTU21D;63946;51.986;5.930;2023-09-19T10:59:14;20.33;56.45
75357;HTU21D;63946;51.986;5.930;2023-09-19T11:01:54;20.26;56.88
75357;HTU21D;63946;51.986;5.930;2023-09-19T11:04:34;20.16;57.03
75357;HTU21D;63946;51.986;5.930;2023-09-19T11:07:12;20.06;57.32
75357;HTU21D;63946;51.986;5.930;2023-09-19T11:09:54;19.96;57.55
75357;HTU21D;63946;51.986;5.930;2023-09-19T11:14:59;19.88;57.74
75357;HTU21D;63946;51.986;5.930;2023-09-19T11:17:38;19.90;57.37
75357;HTU21D;63946;51.986;5.930;2023-09-19T11:20:17;19.85;57.17
75357;HTU21D;63946;51.986;5.930;2023-09-19T11:23:18;19.87;57.13
75357;HTU21D;63946;51.986;5.930;2023-09-19T11:25:48;19.88;57.51
75357;HTU21D;63946;51.986;5.930;2023-09-19T11:30:52;20.11;56.89
75357;HTU21D;63946;51.986;5.930;2023-09-19T11:33:28;20.20;56.78
75357;HTU21D;63946;51.986;5.930;2023-09-19T11:46:58;20.24;55.80
75357;HTU21D;63946;51.986;5.930;2023-09-19T11:49:31;20.40;55.74
75357;HTU21D;63946;51.986;5.930;2023-09-19T11:52:03;20.50;55.41
75357;HTU21D;63946;51.986;5.930;2023-09-19T11:54:36;20.60;55.33
75357;HTU21D;63946;51.986;5.930;2023-09-19T11:57:20;20.79;54.83
75357;HTU21D;63946;51.986;5.930;2023-09-19T11:59:55;20.94;54.51
75357;HTU21D;63946;51.986;5.930;2023-09-19T12:02:39;21.03;54.59
75357;HTU21D;63946;51.986;5.930;2023-09-19T12:05:13;21.01;54.19
75357;HTU21D;63946;51.986;5.930;2023-09-19T12:07:48;20.92;54.44
75357;HTU21D;63946;51.986;5.930;2023-09-19T12:10:18;20.92;54.56
75357;HTU21D;63946;51.986;5.930;2023-09-19T12:12:49;20.90;54.16
75357;HTU21D;63946;51.986;5.930;2023-09-19T12:15:26;20.84;54.00
75357;HTU21D;63946;51.986;5.930;2023-09-19T12:18:00;20.87;54.01
75357;HTU21D;63946;51.986;5.930;2023-09-19T12:20:44;20.93;53.84
75357;HTU21D;63946;51.986;5.930;2023-09-19T12:23:16;20.98;53.83
75357;HTU21D;63946;51.986;5.930;2023-09-19T12:25:43;21.05;53.57
75357;HTU21D;63946;51.986;5.930;2023-09-19T12:28:14;21.15;53.44
75357;HTU21D;63946;51.986;5.930;2023-09-19T12:30:43;21.27;52.98
75357;HTU21D;63946;51.986;5.930;2023-09-19T12:33:19;21.39;52.32
75357;HTU21D;63946;51.986;5.930;2023-09-19T12:35:52;21.30;52.67
75357;HTU21D;63946;51.986;5.930;2023-09-19T12:38:29;21.22;52.78
75357;HTU21D;63946;51.986;5.930;2023-09-19T12:41:01;21.06;52.79
75357;HTU21D;63946;51.986;5.930;2023-09-19T12:43:33;20.92;53.04
75357;HTU21D;63946;51.986;5.930;2023-09-19T12:46:05;20.75;53.13
75357;HTU21D;63946;51.986;5.930;2023-09-19T12:48:36;20.60;53.63
75357;HTU21D;63946;51.986;5.930;2023-09-19T12:51:10;20.55;54.12
75357;HTU21D;63946;51.986;5.930;2023-09-19T12:53:56;20.53;54.20
75357;HTU21D;63946;51.986;5.930;2023-09-19T12:56:26;20.50;54.51
75357;HTU21D;63946;51.986;5.930;2023-09-19T12:58:57;20.51;54.25
75357;HTU21D;63946;51.986;5.930;2023-09-19T13:01:32;20.45;54.51
75357;HTU21D;63946;51.986;5.930;2023-09-19T13:04:23;20.40;54.27
75357;HTU21D;63946;51.986;5.930;2023-09-19T13:06:59;20.32;54.46
75357;HTU21D;63946;51.986;5.930;2023-09-19T13:09:28;20.30;54.62
75357;HTU21D;63946;51.986;5.930;2023-09-19T13:12:01;20.28;54.70
75357;HTU21D;63946;51.986;5.930;2023-09-19T13:14:47;20.30;54.69
75357;HTU21D;63946;51.986;5.930;2023-09-19T13:17:18;20.31;54.61
75357;HTU21D;63946;51.986;5.930;2023-09-19T13:19:53;20.36;54.67
75357;HTU21D;63946;51.986;5.930;2023-09-19T13:22:40;20.45;54.51
75357;HTU21D;63946;51.986;5.930;2023-09-19T13:25:16;20.47;54.24
75357;HTU21D;63946;51.986;5.930;2023-09-19T13:27:53;20.44;54.42
75357;HTU21D;63946;51.986;5.930;2023-09-19T13:30:27;20.44;54.84
75357;HTU21D;63946;51.986;5.930;2023-09-19T13:33:11;20.37;54.85
75357;HTU21D;63946;51.986;5.930;2023-09-19T13:35:55;20.32;55.07
75357;HTU21D;63946;51.986;5.930;2023-09-19T13:38:31;20.27;55.17
75357;HTU21D;63946;51.986;5.930;2023-09-19T13:41:03;20.20;55.30
75357;HTU21D;63946;51.986;5.930;2023-09-19T13:43:32;20.16;55.47
75357;HTU21D;63946;51.986;5.930;2023-09-19T13:46:05;20.16;55.54
75357;HTU21D;63946;51.986;5.930;2023-09-19T13:48:52;20.16;55.50
75357;HTU21D;63946;51.986;5.930;2023-09-19T13:51:26;20.16;55.58
75357;HTU21D;63946;51.986;5.930;2023-09-19T13:53:58;20.16;55.70
75357;HTU21D;63946;51.986;5.930;2023-09-19T13:56:27;20.13;55.60
75357;HTU21D;63946;51.986;5.930;2023-09-19T13:58:59;20.13;55.60
75357;HTU21D;63946;51.986;5.930;2023-09-19T14:01:36;20.18;55.68
75357;HTU21D;63946;51.986;5.930;2023-09-19T14:04:13;20.30;55.78
75357;HTU21D;63946;51.986;5.930;2023-09-19T14:06:49;20.36;55.56
75357;HTU21D;63946;51.986;5.930;2023-09-19T14:09:23;20.44;55.10
75357;HTU21D;63946;51.986;5.930;2023-09-19T14:11:57;20.55;54.52
75357;HTU21D;63946;51.986;5.930;2023-09-19T14:14:31;20.61;54.43
75357;HTU21D;63946;51.986;5.930;2023-09-19T14:17:00;20.66;54.23
75357;HTU21D;63946;51.986;5.930;2023-09-19T14:19:30;20.73;54.39
75357;HTU21D;63946;51.986;5.930;2023-09-19T14:22:02;20.77;54.36
75357;HTU21D;63946;51.986;5.930;2023-09-19T14:24:33;20.83;54.46
75357;HTU21D;63946;51.986;5.930;2023-09-19T14:27:05;20.88;54.26
75357;HTU21D;63946;51.986;5.930;2023-09-19T14:29:36;20.86;54.09
75357;HTU21D;63946;51.986;5.930;2023-09-19T14:32:06;20.80;54.00
75357;HTU21D;63946;51.986;5.930;2023-09-19T14:34:38;20.73;54.03
75357;HTU21D;63946;51.986;5.930;2023-09-19T14:37:15;20.61;54.09
75357;HTU21D;63946;51.986;5.930;2023-09-19T14:39:48;20.54;54.44
75357;HTU21D;63946;51.986;5.930;2023-09-19T14:42:18;20.50;54.75
75357;HTU21D;63946;51.986;5.930;2023-09-19T14:44:47;20.47;54.59
75357;HTU21D;63946;51.986;5.930;2023-09-19T14:47:19;20.44;54.49
75357;HTU21D;63946;51.986;5.930;2023-09-19T14:49:49;20.44;54.62
75357;HTU21D;63946;51.986;5.930;2023-09-19T14:52:18;20.45;54.72
75357;HTU21D;63946;51.986;5.930;2023-09-19T14:54:47;20.46;54.62
75357;HTU21D;63946;51.986;5.930;2023-09-19T14:57:16;20.45;54.71
75357;HTU21D;63946;51.986;5.930;2023-09-19T14:59:45;20.43;54.88
75357;HTU21D;63946;51.986;5.930;2023-09-19T15:02:14;20.43;54.98
75357;HTU21D;63946;51.986;5.930;2023-09-19T15:04:49;20.39;54.90
75357;HTU21D;63946;51.986;5.930;2023-09-19T15:07:21;20.33;54.92
75357;HTU21D;63946;51.986;5.930;2023-09-19T15:09:50;20.26;55.20
75357;HTU21D;63946;51.986;5.930;2023-09-19T15:12:19;20.21;55.24
75357;HTU21D;63946;51.986;5.930;2023-09-19T15:14:57;20.17;55.32
75357;HTU21D;63946;51.986;5.930;2023-09-19T15:17:29;20.13;55.46
75357;HTU21D;63946;51.986;5.930;2023-09-19T15:20:15;20.12;55.48
75357;HTU21D;63946;51.986;5.930;2023-09-19T15:22:46;20.07;55.68
75357;HTU21D;63946;51.986;5.930;2023-09-19T15:25:15;20.05;55.89
75357;HTU21D;63946;51.986;5.930;2023-09-19T15:27:46;20.02;56.08
75357;HTU21D;63946;51.986;5.930;2023-09-19T15:30:18;20.03;56.26
75357;HTU21D;63946;51.986;5.930;2023-09-19T15:32:58;20.02;56.35
75357;HTU21D;63946;51.986;5.930;2023-09-19T15:35:30;19.99;56.34
75357;HTU21D;63946;51.986;5.930;2023-09-19T15:38:20;19.97;56.40
75357;HTU21D;63946;51.986;5.930;2023-09-19T15:40:58;19.96;56.39
75357;HTU21D;63946;51.986;5.930;2023-09-19T15:43:31;19.90;56.44
75357;HTU21D;63946;51.986;5.930;2023-09-19T15:46:02;19.85;56.51
75357;HTU21D;63946;51.986;5.930;2023-09-19T15:48:31;19.82;56.66
75357;HTU21D;63946;51.986;5.930;2023-09-19T15:51:07;19.83;56.85
75357;HTU21D;63946;51.986;5.930;2023-09-19T15:53:49;19.80;56.81
75357;HTU21D;63946;51.986;5.930;2023-09-19T15:56:44;19.80;56.84
75357;HTU21D;63946;51.986;5.930;2023-09-19T15:59:22;19.80;56.98
75357;HTU21D;63946;51.986;5.930;2023-09-19T16:01:53;19.80;56.98
75357;HTU21D;63946;51.986;5.930;2023-09-19T16:04:30;19.81;56.99
75357;HTU21D;63946;51.986;5.930;2023-09-19T16:07:04;19.79;56.98
75357;HTU21D;63946;51.986;5.930;2023-09-19T16:09:38;19.77;57.06
75357;HTU21D;63946;51.986;5.930;2023-09-19T16:12:08;19.77;57.12
75357;HTU21D;63946;51.986;5.930;2023-09-19T16:14:40;19.77;57.17
75357;HTU21D;63946;51.986;5.930;2023-09-19T16:17:21;19.76;57.25
75357;HTU21D;63946;51.986;5.930;2023-09-19T16:19:52;19.77;57.22
75357;HTU21D;63946;51.986;5.930;2023-09-19T16:22:23;19.77;57.31
75357;HTU21D;63946;51.986;5.930;2023-09-19T16:25:16;19.77;57.50
75357;HTU21D;63946;51.986;5.930;2023-09-19T16:27:53;19.76;57.58
75357;HTU21D;63946;51.986;5.930;2023-09-19T16:30:36;19.73;57.60
75357;HTU21D;63946;51.986;5.930;2023-09-19T16:33:07;19.71;57.71
75357;HTU21D;63946;51.986;5.930;2023-09-19T16:35:47;19.71;57.73
75357;HTU21D;63946;51.986;5.930;2023-09-19T16:38:20;19.67;57.96
75357;HTU21D;63946;51.986;5.930;2023-09-19T16:40:58;19.65;58.14
75357;HTU21D;63946;51.986;5.930;2023-09-19T16:43:35;19.61;58.32
75357;HTU21D;63946;51.986;5.930;2023-09-19T16:46:11;19.60;58.42
75357;HTU21D;63946;51.986;5.930;2023-09-19T16:48:46;19.57;58.42
75357;HTU21D;63946;51.986;5.930;2023-09-19T16:51:21;19.59;58.53
75357;HTU21D;63946;51.986;5.930;2023-09-19T16:53:54;19.59;58.44
75357;HTU21D;63946;51.986;5.930;2023-09-19T16:56:30;19.59;58.57
75357;HTU21D;63946;51.986;5.930;2023-09-19T16:59:07;19.58;58.59
75357;HTU21D;63946;51.986;5.930;2023-09-19T17:01:38;19.57;58.66
75357;HTU21D;63946;51.986;5.930;2023-09-19T17:04:12;19.60;58.64
75357;HTU21D;63946;51.986;5.930;2023-09-19T17:06:55;19.58;58.64
75357;HTU21D;63946;51.986;5.930;2023-09-19T17:09:26;19.59;58.71
75357;HTU21D;63946;51.986;5.930;2023-09-19T17:11:58;19.57;58.77
75357;HTU21D;63946;51.986;5.930;2023-09-19T17:14:28;19.55;58.76
75357;HTU21D;63946;51.986;5.930;2023-09-19T17:16:58;19.56;58.87
75357;HTU21D;63946;51.986;5.930;2023-09-19T17:19:31;19.54;58.88
75357;HTU21D;63946;51.986;5.930;2023-09-19T17:22:03;19.56;58.96
75357;HTU21D;63946;51.986;5.930;2023-09-19T17:24:36;19.55;59.02
75357;HTU21D;63946;51.986;5.930;2023-09-19T17:27:11;19.53;59.12
75357;HTU21D;63946;51.986;5.930;2023-09-19T17:29:42;19.50;59.21
75357;HTU21D;63946;51.986;5.930;2023-09-19T17:32:13;19.47;59.47
75357;HTU21D;63946;51.986;5.930;2023-09-19T17:34:47;19.45;59.83
75357;HTU21D;63946;51.986;5.930;2023-09-19T17:37:16;19.40;59.90
75357;HTU21D;63946;51.986;5.930;2023-09-19T17:39:48;19.38;60.25
75357;HTU21D;63946;51.986;5.930;2023-09-19T17:42:17;19.36;60.44
75357;HTU21D;63946;51.986;5.930;2023-09-19T17:44:46;19.32;60.65
75357;HTU21D;63946;51.986;5.930;2023-09-19T17:47:17;19.30;60.89
75357;HTU21D;63946;51.986;5.930;2023-09-19T17:49:49;19.25;61.21
75357;HTU21D;63946;51.986;5.930;2023-09-19T17:52:24;19.18;61.45
75357;HTU21D;63946;51.986;5.930;2023-09-19T17:54:53;19.15;61.65
75357;HTU21D;63946;51.986;5.930;2023-09-19T17:57:28;19.09;61.92
75357;HTU21D;63946;51.986;5.930;2023-09-19T18:00:25;19.06;61.92
75357;HTU21D;63946;51.986;5.930;2023-09-19T18:03:01;19.05;62.21
75357;HTU21D;63946;51.986;5.930;2023-09-19T18:05:43;19.01;62.43
75357;HTU21D;63946;51.986;5.930;2023-09-19T18:08:12;18.98;62.43
75357;HTU21D;63946;51.986;5.930;2023-09-19T18:10:48;18.96;62.50
75357;HTU21D;63946;51.986;5.930;2023-09-19T18:13:17;18.93;62.47
75357;HTU21D;63946;51.986;5.930;2023-09-19T18:15:49;18.92;62.47
75357;HTU21D;63946;51.986;5.930;2023-09-19T18:18:21;18.91;62.47
75357;HTU21D;63946;51.986;5.930;2023-09-19T18:20:50;18.91;62.36
75357;HTU21D;63946;51.986;5.930;2023-09-19T18:23:21;18.93;62.26
75357;HTU21D;63946;51.986;5.930;2023-09-19T18:26:00;18.93;62.31
75357;HTU21D;63946;51.986;5.930;2023-09-19T18:28:31;18.92;62.21
75357;HTU21D;63946;51.986;5.930;2023-09-19T18:31:15;18.91;62.37
75357;HTU21D;63946;51.986;5.930;2023-09-19T18:33:46;18.87;62.38
75357;HTU21D;63946;51.986;5.930;2023-09-19T18:36:18;18.86;62.48
75357;HTU21D;63946;51.986;5.930;2023-09-19T18:39:05;18.85;62.60
75357;HTU21D;63946;51.986;5.930;2023-09-19T18:41:52;18.84;62.82
75357;HTU21D;63946;51.986;5.930;2023-09-19T18:44:28;18.81;63.04
75357;HTU21D;63946;51.986;5.930;2023-09-19T18:47:02;18.80;63.27
75357;HTU21D;63946;51.986;5.930;2023-09-19T18:49:48;18.77;63.53
75357;HTU21D;63946;51.986;5.930;2023-09-19T18:52:26;18.70;63.85
75357;HTU21D;63946;51.986;5.930;2023-09-19T18:55:00;18.65;64.15
75357;HTU21D;63946;51.986;5.930;2023-09-19T18:57:33;18.65;64.30
75357;HTU21D;63946;51.986;5.930;2023-09-19T19:00:04;18.64;64.38
75357;HTU21D;63946;51.986;5.930;2023-09-19T19:02:35;18.62;64.47
75357;HTU21D;63946;51.986;5.930;2023-09-19T19:05:08;18.57;64.63
75357;HTU21D;63946;51.986;5.930;2023-09-19T19:07:45;18.56;64.68
75357;HTU21D;63946;51.986;5.930;2023-09-19T19:10:19;18.56;64.69
75357;HTU21D;63946;51.986;5.930;2023-09-19T19:12:51;18.54;64.87
75357;HTU21D;63946;51.986;5.930;2023-09-19T19:15:23;18.55;64.81
75357;HTU21D;63946;51.986;5.930;2023-09-19T19:18:03;18.55;64.85
75357;HTU21D;63946;51.986;5.930;2023-09-19T19:20:32;18.54;64.76
75357;HTU21D;63946;51.986;5.930;2023-09-19T19:23:06;18.55;64.79
75357;HTU21D;63946;51.986;5.930;2023-09-19T19:25:36;18.56;64.76
75357;HTU21D;63946;51.986;5.930;2023-09-19T19:28:05;18.58;64.74
75357;HTU21D;63946;51.986;5.930;2023-09-19T19:30:43;18.59;64.71
75357;HTU21D;63946;51.986;5.930;2023-09-19T19:33:12;18.56;64.54
75357;HTU21D;63946;51.986;5.930;2023-09-19T19:35:41;18.59;64.47
75357;HTU21D;63946;51.986;5.930;2023-09-19T19:38:14;18.56;64.56
75357;HTU21D;63946;51.986;5.930;2023-09-19T19:41:02;18.58;64.53
75357;HTU21D;63946;51.986;5.930;2023-09-19T19:43:32;18.58;64.47
75357;HTU21D;63946;51.986;5.930;2023-09-19T19:46:03;18.58;64.49
75357;HTU21D;63946;51.986;5.930;2023-09-19T19:48:33;18.59;64.52
75357;HTU21D;63946;51.986;5.930;2023-09-19T19:51:07;18.59;64.50
75357;HTU21D;63946;51.986;5.930;2023-09-19T19:53:39;18.59;64.51
75357;HTU21D;63946;51.986;5.930;2023-09-19T19:56:08;18.58;64.41
75357;HTU21D;63946;51.986;5.930;2023-09-19T19:58:37;18.59;64.37
75357;HTU21D;63946;51.986;5.930;2023-09-19T20:01:07;18.61;64.47
75357;HTU21D;63946;51.986;5.930;2023-09-19T20:03:37;18.61;64.37
75357;HTU21D;63946;51.986;5.930;2023-09-19T20:06:09;18.61;64.31
75357;HTU21D;63946;51.986;5.930;2023-09-19T20:08:38;18.62;64.28
75357;HTU21D;63946;51.986;5.930;2023-09-19T20:11:07;18.64;64.22
75357;HTU21D;63946;51.986;5.930;2023-09-19T20:13:36;18.65;64.18
75357;HTU21D;63946;51.986;5.930;2023-09-19T20:16:06;18.66;64.17
75357;HTU21D;63946;51.986;5.930;2023-09-19T20:18:35;18.68;64.07
75357;HTU21D;63946;51.986;5.930;2023-09-19T20:21:09;18.68;64.08
75357;HTU21D;63946;51.986;5.930;2023-09-19T20:23:40;18.70;63.98
75357;HTU21D;63946;51.986;5.930;2023-09-19T20:26:14;18.72;63.89
75357;HTU21D;63946;51.986;5.930;2023-09-19T20:28:43;18.73;63.88
75357;HTU21D;63946;51.986;5.930;2023-09-19T20:31:12;18.74;63.79
75357;HTU21D;63946;51.986;5.930;2023-09-19T20:33:44;18.76;63.73
75357;HTU21D;63946;51.986;5.930;2023-09-19T20:36:14;18.77;63.63
75357;HTU21D;63946;51.986;5.930;2023-09-19T20:38:46;18.78;63.61
75357;HTU21D;63946;51.986;5.930;2023-09-19T20:41:16;18.77;63.61
75357;HTU21D;63946;51.986;5.930;2023-09-19T20:43:45;18.77;63.66
75357;HTU21D;63946;51.986;5.930;2023-09-19T20:46:14;18.78;63.58
75357;HTU21D;63946;51.986;5.930;2023-09-19T20:48:45;18.79;63.54
75357;HTU21D;63946;51.986;5.930;2023-09-19T20:51:14;18.80;63.47
75357;HTU21D;63946;51.986;5.930;2023-09-19T20:53:53;18.81;63.47
75357;HTU21D;63946;51.986;5.930;2023-09-19T20:56:24;18.82;63.40
75357;HTU21D;63946;51.986;5.930;2023-09-19T20:58:55;18.83;63.33
75357;HTU21D;63946;51.986;5.930;2023-09-19T21:01:24;18.83;63.23
75357;HTU21D;63946;51.986;5.930;2023-09-19T21:03:55;18.81;63.24
75357;HTU21D;63946;51.986;5.930;2023-09-19T21:06:26;18.82;63.20
75357;HTU21D;63946;51.986;5.930;2023-09-19T21:08:55;18.82;63.19
75357;HTU21D;63946;51.986;5.930;2023-09-19T21:11:27;18.83;63.18
75357;HTU21D;63946;51.986;5.930;2023-09-19T21:13:56;18.85;63.18
75357;HTU21D;63946;51.986;5.930;2023-09-19T21:16:25;18.84;63.12
75357;HTU21D;63946;51.986;5.930;2023-09-19T21:18:54;18.85;63.07
75357;HTU21D;63946;51.986;5.930;2023-09-19T21:21:25;18.87;63.07
75357;HTU21D;63946;51.986;5.930;2023-09-19T21:23:58;18.86;63.10
75357;HTU21D;63946;51.986;5.930;2023-09-19T21:26:37;18.86;62.95
